createdAt,value
2018-08-28T00:00:17.882Z,99.90
2018-08-28T00:02:46.448Z,99.90
2018-08-28T00:05:15.001Z,99.90
2018-08-28T00:07:43.531Z,99.90
2018-08-28T00:10:12.121Z,99.90
2018-08-28T00:12:41.185Z,99.90
2018-08-28T00:15:10.400Z,99.90
2018-08-28T00:17:38.927Z,99.90
2018-08-28T00:20:07.563Z,99.90
2018-08-28T00:22:36.066Z,99.90
2018-08-28T00:25:04.599Z,99.90
2018-08-28T00:27:33.122Z,99.90
2018-08-28T00:30:01.670Z,99.90
2018-08-28T00:32:30.225Z,99.90
2018-08-28T00:34:58.731Z,99.90
2018-08-28T00:37:27.220Z,99.90
2018-08-28T00:39:55.772Z,99.90
2018-08-28T00:42:24.347Z,99.90
2018-08-28T00:44:52.909Z,99.90
2018-08-28T00:47:21.431Z,99.90
2018-08-28T00:49:50.220Z,99.90
2018-08-28T00:52:18.752Z,99.90
2018-08-28T00:54:47.317Z,99.90
2018-08-28T00:57:15.800Z,99.90
2018-08-28T00:59:44.345Z,99.90
2018-08-28T01:02:13.894Z,99.90
2018-08-28T01:04:42.468Z,99.90
2018-08-28T01:07:11.235Z,99.90
2018-08-28T01:09:39.749Z,99.90
2018-08-28T01:12:08.320Z,99.90
2018-08-28T01:14:36.773Z,99.90
2018-08-28T01:17:05.357Z,99.90
2018-08-28T01:19:34.236Z,99.90
2018-08-28T01:22:02.841Z,99.90
2018-08-28T01:24:31.327Z,99.90
2018-08-28T01:26:59.908Z,99.90
2018-08-28T01:29:28.745Z,99.90
2018-08-28T01:31:57.290Z,99.90
2018-08-28T01:34:25.846Z,99.90
2018-08-28T01:36:55.475Z,99.90
2018-08-28T01:39:24.135Z,99.90
2018-08-28T01:41:52.894Z,99.90
2018-08-28T01:44:21.577Z,99.90
2018-08-28T01:46:50.118Z,99.90
2018-08-28T01:49:18.603Z,99.90
2018-08-28T01:51:47.150Z,99.90
2018-08-28T01:54:15.742Z,99.90
2018-08-28T01:56:44.408Z,99.90
2018-08-28T01:59:13.136Z,99.90
2018-08-28T02:01:41.607Z,99.90
2018-08-28T02:04:10.075Z,99.90
2018-08-28T02:06:38.524Z,99.90
2018-08-28T02:09:07.674Z,99.90
2018-08-28T02:11:36.201Z,99.90
2018-08-28T02:14:04.676Z,99.90
2018-08-28T02:16:33.157Z,99.90
2018-08-28T02:19:01.606Z,99.90
2018-08-28T02:21:30.739Z,99.90
2018-08-28T02:23:59.394Z,99.90
2018-08-28T02:26:27.913Z,99.90
2018-08-28T02:28:56.409Z,99.90
2018-08-28T02:31:24.933Z,99.90
2018-08-28T02:33:53.562Z,99.90
2018-08-28T02:36:22.330Z,99.90
2018-08-28T02:38:50.865Z,99.90
2018-08-28T02:41:20.658Z,99.90
2018-08-28T02:43:49.274Z,99.90
2018-08-28T02:46:18.082Z,99.90
2018-08-28T02:48:46.789Z,99.90
2018-08-28T02:51:15.438Z,99.90
2018-08-28T02:53:44.325Z,99.90
2018-08-28T02:56:13.108Z,99.90
2018-08-28T02:58:41.703Z,99.90
2018-08-28T03:01:11.231Z,99.90
2018-08-28T03:03:39.891Z,99.90
2018-08-28T03:06:08.593Z,99.90
2018-08-28T03:08:37.205Z,99.90
2018-08-28T03:11:06.333Z,99.90
2018-08-28T03:13:34.986Z,99.90
2018-08-28T03:16:04.337Z,99.90
2018-08-28T03:18:32.987Z,99.90
2018-08-28T03:21:02.228Z,99.90
2018-08-28T03:23:30.884Z,99.90
2018-08-28T03:25:59.534Z,99.90
2018-08-28T03:28:28.203Z,99.90
2018-08-28T03:30:56.823Z,99.90
2018-08-28T03:33:25.492Z,99.90
2018-08-28T03:35:54.424Z,99.90
2018-08-28T03:38:23.054Z,99.90
2018-08-28T03:40:51.779Z,99.90
2018-08-28T03:43:20.847Z,99.90
2018-08-28T03:45:49.395Z,99.90
2018-08-28T03:48:18.190Z,99.90
2018-08-28T03:50:47.862Z,99.90
2018-08-28T03:53:16.491Z,99.90
2018-08-28T03:55:45.153Z,99.90
2018-08-28T03:58:13.785Z,99.90
2018-08-28T04:00:42.599Z,99.90
2018-08-28T04:03:11.254Z,99.90
2018-08-28T04:05:39.971Z,99.90
2018-08-28T04:08:08.652Z,99.90
2018-08-28T04:10:37.432Z,99.90
2018-08-28T04:13:06.600Z,99.90
2018-08-28T04:15:35.334Z,99.90
2018-08-28T04:18:03.990Z,99.90
2018-08-28T04:20:32.646Z,99.90
2018-08-28T04:23:01.315Z,99.90
2018-08-28T04:25:29.911Z,99.90
2018-08-28T04:27:58.597Z,99.90
2018-08-28T04:30:27.352Z,99.90
2018-08-28T04:32:56.582Z,99.90
2018-08-28T04:35:26.486Z,99.90
2018-08-28T04:37:55.343Z,99.90
2018-08-28T04:40:23.978Z,99.90
2018-08-28T04:42:52.643Z,99.90
2018-08-28T04:48:15.214Z,99.90
2018-08-28T04:50:46.608Z,99.90
2018-08-28T04:53:15.331Z,99.90
2018-08-28T04:55:53.417Z,99.90
2018-08-28T04:58:22.098Z,99.90
2018-08-28T05:00:51.247Z,99.90
2018-08-28T05:03:19.948Z,99.90
2018-08-28T05:05:48.575Z,99.90
2018-08-28T05:08:17.320Z,99.90
2018-08-28T05:10:46.290Z,99.90
2018-08-28T05:13:15.136Z,99.90
2018-08-28T05:15:43.972Z,99.90
2018-08-28T05:18:12.611Z,99.90
2018-08-28T05:20:41.365Z,99.90
2018-08-28T05:23:10.117Z,99.90
2018-08-28T05:25:38.809Z,99.90
2018-08-28T05:28:07.826Z,99.90
2018-08-28T05:30:36.650Z,99.90
2018-08-28T05:33:05.759Z,99.90
2018-08-28T05:35:34.392Z,99.90
2018-08-28T05:38:03.162Z,99.90
2018-08-28T05:40:32.158Z,99.90
2018-08-28T05:43:00.936Z,99.90
2018-08-28T05:45:29.809Z,99.90
2018-08-28T05:47:58.548Z,99.90
2018-08-28T05:50:27.200Z,99.90
2018-08-28T05:52:55.912Z,99.90
2018-08-28T05:55:24.639Z,99.90
2018-08-28T05:57:53.305Z,99.90
2018-08-28T06:00:22.079Z,99.90
2018-08-28T06:02:50.874Z,99.90
2018-08-28T06:05:19.583Z,99.90
2018-08-28T06:07:48.252Z,99.90
2018-08-28T06:10:16.985Z,99.90
2018-08-28T06:12:45.564Z,99.90
2018-08-28T06:15:14.946Z,99.90
2018-08-28T06:17:43.605Z,99.90
2018-08-28T06:20:12.184Z,99.90
2018-08-28T06:22:40.878Z,99.90
2018-08-28T06:25:09.577Z,99.90
2018-08-28T06:27:38.336Z,99.90
2018-08-28T06:30:07.168Z,99.90
2018-08-28T06:32:36.027Z,99.90
2018-08-28T06:35:05.506Z,99.90
2018-08-28T06:37:34.322Z,99.90
2018-08-28T06:40:03.111Z,99.90
2018-08-28T06:42:31.790Z,99.90
2018-08-28T06:45:00.497Z,99.90
2018-08-28T06:47:29.247Z,99.90
2018-08-28T06:49:58.449Z,99.90
2018-08-28T06:52:27.248Z,99.90
2018-08-28T06:54:56.677Z,99.90
2018-08-28T06:57:25.605Z,99.90
2018-08-28T06:59:54.270Z,99.90
2018-08-28T07:02:23.462Z,99.90
2018-08-28T07:04:52.097Z,99.90
2018-08-28T07:07:20.740Z,99.90
2018-08-28T07:09:49.453Z,99.90
2018-08-28T07:12:18.480Z,99.90
2018-08-28T07:14:48.213Z,99.90
2018-08-28T07:17:17.028Z,99.90
2018-08-28T07:19:45.780Z,99.90
2018-08-28T07:22:14.444Z,99.90
2018-08-28T07:24:43.108Z,99.90
2018-08-28T07:27:11.941Z,99.90
2018-08-28T07:29:40.760Z,99.90
2018-08-28T07:32:09.466Z,99.90
2018-08-28T07:34:38.783Z,99.90
2018-08-28T07:37:07.514Z,99.90
2018-08-28T07:39:36.129Z,99.90
2018-08-28T07:42:06.157Z,99.90
2018-08-28T07:44:34.843Z,99.90
2018-08-28T07:47:03.581Z,99.90
2018-08-28T07:49:32.185Z,99.90
2018-08-28T07:52:01.133Z,99.90
2018-08-28T07:54:29.996Z,99.90
2018-08-28T07:56:58.596Z,99.90
2018-08-28T07:59:27.606Z,99.90
2018-08-28T08:01:56.385Z,99.90
2018-08-28T08:04:25.302Z,99.90
2018-08-28T08:06:54.051Z,99.90
2018-08-28T08:09:22.887Z,99.90
2018-08-28T08:11:51.611Z,99.90
2018-08-28T08:14:20.538Z,99.90
2018-08-28T08:16:49.253Z,99.90
2018-08-28T08:19:17.961Z,99.90
2018-08-28T08:21:47.328Z,99.90
2018-08-28T08:24:16.028Z,99.90
2018-08-28T08:26:44.875Z,99.90
2018-08-28T08:29:13.560Z,99.90
2018-08-28T08:31:42.745Z,99.90
2018-08-28T08:34:11.588Z,99.90
2018-08-28T08:36:40.243Z,99.90
2018-08-28T08:39:10.552Z,99.90
2018-08-28T08:41:40.518Z,99.90
2018-08-28T08:44:09.394Z,99.90
2018-08-28T08:46:38.064Z,99.90
2018-08-28T08:49:06.767Z,99.90
2018-08-28T08:51:35.464Z,99.90
2018-08-28T08:54:04.315Z,99.90
2018-08-28T08:56:33.016Z,99.90
2018-08-28T08:59:01.809Z,99.90
2018-08-28T09:01:30.598Z,99.90
2018-08-28T09:03:59.331Z,99.90
2018-08-28T09:06:28.349Z,99.90
2018-08-28T09:08:57.022Z,99.90
2018-08-28T09:11:25.955Z,99.90
2018-08-28T09:13:54.777Z,99.90
2018-08-28T09:16:24.020Z,99.90
2018-08-28T09:18:52.683Z,99.90
2018-08-28T09:21:21.437Z,99.90
2018-08-28T09:23:50.132Z,99.90
2018-08-28T09:26:18.763Z,99.90
2018-08-28T09:28:47.402Z,99.90
2018-08-28T09:31:16.039Z,99.90
2018-08-28T09:33:44.677Z,99.90
2018-08-28T09:36:13.324Z,99.90
2018-08-28T09:38:41.924Z,99.90
2018-08-28T09:41:10.553Z,99.90
2018-08-28T09:43:39.279Z,99.90
2018-08-28T09:46:08.231Z,99.90
2018-08-28T09:48:37.764Z,99.90
2018-08-28T09:51:06.527Z,99.90
2018-08-28T09:53:35.380Z,99.90
2018-08-28T09:56:04.303Z,99.90
2018-08-28T09:58:33.008Z,99.90
2018-08-28T10:01:06.942Z,99.90
2018-08-28T10:03:35.659Z,99.90
2018-08-28T10:06:04.389Z,99.90
2018-08-28T10:08:33.102Z,99.90
2018-08-28T10:11:01.942Z,99.90
2018-08-28T10:13:30.488Z,99.90
2018-08-28T10:15:59.122Z,99.90
2018-08-28T10:18:27.964Z,99.90
2018-08-28T10:20:56.694Z,99.90
2018-08-28T10:23:25.817Z,99.90
2018-08-28T10:25:54.563Z,99.90
2018-08-28T10:28:23.397Z,99.90
2018-08-28T10:30:52.247Z,99.90
2018-08-28T10:33:21.061Z,99.90
2018-08-28T10:35:49.777Z,99.90
2018-08-28T10:38:18.716Z,99.90
2018-08-28T10:40:47.821Z,99.90
2018-08-28T10:43:16.467Z,99.90
2018-08-28T10:45:45.277Z,99.90
2018-08-28T10:48:13.975Z,99.90
2018-08-28T10:50:42.670Z,99.90
2018-08-28T10:53:11.419Z,99.90
2018-08-28T10:55:40.343Z,99.90
2018-08-28T10:58:09.000Z,99.90
2018-08-28T11:00:37.927Z,99.90
2018-08-28T11:03:06.727Z,99.90
2018-08-28T11:05:36.559Z,99.90
2018-08-28T11:08:05.610Z,99.90
2018-08-28T11:10:34.263Z,99.90
2018-08-28T11:13:02.997Z,99.90
2018-08-28T11:15:31.753Z,99.90
2018-08-28T11:18:00.496Z,99.90
2018-08-28T11:20:29.219Z,99.90
2018-08-28T11:22:57.978Z,99.90
2018-08-28T11:25:26.666Z,99.90
2018-08-28T11:27:55.427Z,99.90
2018-08-28T11:30:24.209Z,99.90
2018-08-28T11:32:53.046Z,99.90
2018-08-28T11:35:21.733Z,99.90
2018-08-28T11:37:50.398Z,99.90
2018-08-28T11:40:19.102Z,99.90
2018-08-28T11:42:47.819Z,99.90
2018-08-28T11:45:16.663Z,99.90
2018-08-28T11:47:45.428Z,99.90
2018-08-28T11:50:14.456Z,99.90
2018-08-28T11:52:43.442Z,99.90
2018-08-28T11:55:12.206Z,99.90
2018-08-28T11:57:40.872Z,99.90
2018-08-28T12:00:09.797Z,99.90
2018-08-28T12:02:38.694Z,99.90
2018-08-28T12:05:07.832Z,99.90
2018-08-28T12:07:36.601Z,99.90
2018-08-28T12:10:05.444Z,99.90
2018-08-28T12:12:34.245Z,99.90
2018-08-28T12:15:03.043Z,99.90
2018-08-28T12:17:31.892Z,99.90
2018-08-28T12:20:00.870Z,99.90
2018-08-28T12:22:29.689Z,99.90
2018-08-28T12:24:58.462Z,99.90
2018-08-28T12:27:27.881Z,99.90
2018-08-28T12:29:56.538Z,99.90
2018-08-28T12:32:25.276Z,99.90
2018-08-28T12:34:53.939Z,99.90
2018-08-28T12:37:22.970Z,99.90
2018-08-28T12:39:51.614Z,99.90
2018-08-28T12:42:20.254Z,99.90
2018-08-28T12:44:49.300Z,99.90
2018-08-28T12:47:18.112Z,99.90
2018-08-28T12:49:47.096Z,99.90
2018-08-28T12:52:15.931Z,99.90
2018-08-28T12:54:44.720Z,99.90
2018-08-28T12:57:13.460Z,99.90
2018-08-28T12:59:42.434Z,99.90
2018-08-28T13:02:11.215Z,99.90
2018-08-28T13:04:39.862Z,99.90
2018-08-28T13:07:08.582Z,99.90
2018-08-28T13:09:37.304Z,99.80
2018-08-28T13:12:06.168Z,99.60
2018-08-28T13:14:35.240Z,99.80
2018-08-28T13:17:04.407Z,99.90
2018-08-28T13:19:33.102Z,99.90
2018-08-28T13:22:01.935Z,99.90
2018-08-28T13:24:30.734Z,99.90
2018-08-28T13:26:59.475Z,99.90
2018-08-28T13:29:28.222Z,99.90
2018-08-28T13:31:56.920Z,99.90
2018-08-28T13:34:25.754Z,99.90
2018-08-28T13:36:54.557Z,99.90
2018-08-28T13:39:23.448Z,99.90
2018-08-28T13:41:52.234Z,99.90
2018-08-28T13:44:21.117Z,99.90
2018-08-28T13:46:49.805Z,99.90
2018-08-28T13:49:18.488Z,99.90
2018-08-28T13:51:47.307Z,99.90
2018-08-28T13:54:16.148Z,99.90
2018-08-28T13:56:44.922Z,99.70
2018-08-28T13:59:13.861Z,99.60
2018-08-28T14:01:42.716Z,99.30
2018-08-28T14:04:11.394Z,99.40
2018-08-28T14:06:40.111Z,99.10
2018-08-28T14:09:08.801Z,99.40
2018-08-28T14:11:37.530Z,98.70
2018-08-28T14:14:06.448Z,98.70
2018-08-28T14:16:35.238Z,98.30
2018-08-28T14:19:04.130Z,98.30
2018-08-28T14:21:32.848Z,98.50
2018-08-28T14:24:01.843Z,98.70
2018-08-28T14:26:31.108Z,98.70
2018-08-28T14:28:59.833Z,98.80
2018-08-28T14:31:28.601Z,98.90
2018-08-28T14:33:57.305Z,98.70
2018-08-28T14:36:26.111Z,99.00
2018-08-28T14:38:54.964Z,99.10
2018-08-28T14:41:23.964Z,99.00
2018-08-28T14:43:52.738Z,98.10
2018-08-28T14:46:21.509Z,97.70
2018-08-28T14:48:50.385Z,96.70
2018-08-28T14:51:19.070Z,97.20
2018-08-28T14:53:47.802Z,96.90
2018-08-28T14:56:16.897Z,97.70
2018-08-28T14:58:45.843Z,97.80
2018-08-28T15:01:14.576Z,97.50
2018-08-28T15:03:43.402Z,97.00
2018-08-28T15:06:12.020Z,97.30
2018-08-28T15:08:40.736Z,98.10
2018-08-28T15:11:09.405Z,98.70
2018-08-28T15:13:38.350Z,98.70
2018-08-28T15:16:07.899Z,99.20
2018-08-28T15:18:36.839Z,99.20
2018-08-28T15:21:06.161Z,99.20
2018-08-28T15:23:34.849Z,99.40
2018-08-28T15:26:03.634Z,99.40
2018-08-28T15:28:32.641Z,99.30
2018-08-28T15:31:01.377Z,99.10
2018-08-28T15:33:30.325Z,98.90
2018-08-28T15:35:59.064Z,98.90
2018-08-28T15:38:27.879Z,98.60
2018-08-28T15:40:57.666Z,98.20
2018-08-28T15:43:26.476Z,98.40
2018-08-28T15:45:55.192Z,98.30
2018-08-28T15:48:23.981Z,98.50
2018-08-28T15:50:53.751Z,98.40
2018-08-28T15:53:22.593Z,98.50
2018-08-28T15:55:51.319Z,97.70
2018-08-28T15:58:20.098Z,97.90
2018-08-28T16:00:48.992Z,97.80
2018-08-28T16:03:17.664Z,97.20
2018-08-28T16:05:46.575Z,97.30
2018-08-28T16:08:15.318Z,97.20
2018-08-28T16:10:44.339Z,97.60
2018-08-28T16:13:13.129Z,98.00
2018-08-28T16:15:42.118Z,98.20
2018-08-28T16:18:11.322Z,98.50
2018-08-28T16:20:40.048Z,98.70
2018-08-28T16:23:12.949Z,98.80
2018-08-28T16:25:42.203Z,98.70
2018-08-28T16:28:11.111Z,99.10
2018-08-28T16:30:39.863Z,99.10
2018-08-28T16:33:08.661Z,99.00
2018-08-28T16:35:37.483Z,98.90
2018-08-28T16:38:06.363Z,99.30
2018-08-28T16:40:35.158Z,99.30
2018-08-28T16:43:03.964Z,99.30
2018-08-28T16:45:32.757Z,99.90
2018-08-28T16:48:01.569Z,99.60
2018-08-28T16:50:30.177Z,99.10
2018-08-28T16:52:58.854Z,99.50
2018-08-28T16:55:27.573Z,99.80
2018-08-28T16:57:56.359Z,99.90
2018-08-28T17:00:24.998Z,99.90
2018-08-28T17:02:53.689Z,99.90
2018-08-28T17:05:22.405Z,99.90
2018-08-28T17:07:51.137Z,99.90
2018-08-28T17:10:19.837Z,99.90
2018-08-28T17:12:48.591Z,99.90
2018-08-28T17:15:17.255Z,99.90
2018-08-28T17:17:45.985Z,99.90
2018-08-28T17:20:14.673Z,99.90
2018-08-28T17:22:43.444Z,99.90
2018-08-28T17:25:12.097Z,99.90
2018-08-28T17:27:40.990Z,99.90
2018-08-28T17:30:09.671Z,99.90
2018-08-28T17:32:38.373Z,99.90
2018-08-28T17:35:07.654Z,99.90
2018-08-28T17:37:36.408Z,99.90
2018-08-28T17:40:05.390Z,99.90
2018-08-28T17:42:34.161Z,99.90
2018-08-28T17:45:02.939Z,99.90
2018-08-28T17:47:31.633Z,99.90
2018-08-28T17:50:00.263Z,99.90
2018-08-28T17:52:28.887Z,99.90
2018-08-28T17:55:04.496Z,99.90
2018-08-28T17:57:33.211Z,99.90
2018-08-28T18:00:01.867Z,99.90
2018-08-28T18:02:30.582Z,99.90
2018-08-28T18:04:59.493Z,99.90
2018-08-28T18:07:28.187Z,99.90
2018-08-28T18:09:56.889Z,99.90
2018-08-28T18:12:25.568Z,99.90
2018-08-28T18:14:54.387Z,99.90
2018-08-28T18:17:23.204Z,99.90
2018-08-28T18:19:51.934Z,99.90
2018-08-28T18:22:21.010Z,99.90
2018-08-28T18:24:49.785Z,99.90
2018-08-28T18:27:18.515Z,99.90
2018-08-28T18:29:47.463Z,99.90
2018-08-28T18:32:16.143Z,99.90
2018-08-28T18:34:44.936Z,99.90
2018-08-28T18:37:13.805Z,99.90
2018-08-28T18:39:42.562Z,99.90
2018-08-28T18:42:11.292Z,99.90
2018-08-28T18:44:39.977Z,99.90
2018-08-28T18:47:08.939Z,99.90
2018-08-28T18:49:37.687Z,99.90
2018-08-28T18:52:06.552Z,99.90
2018-08-28T18:54:35.298Z,99.90
2018-08-28T18:57:04.119Z,99.90
2018-08-28T18:59:32.869Z,99.90
2018-08-28T19:02:01.637Z,99.90
2018-08-28T19:04:30.470Z,99.90
2018-08-28T19:06:59.072Z,99.90
2018-08-28T19:09:27.713Z,99.90
2018-08-28T19:11:56.550Z,99.90
2018-08-28T19:14:25.506Z,99.90
2018-08-28T19:16:54.302Z,99.90
2018-08-28T19:19:23.125Z,99.90
2018-08-28T19:21:51.946Z,99.90
2018-08-28T19:24:20.670Z,99.90
2018-08-28T19:26:49.463Z,99.90
2018-08-28T19:29:18.237Z,99.90
2018-08-28T19:31:47.150Z,99.90
2018-08-28T19:34:15.745Z,99.90
2018-08-28T19:36:44.427Z,99.90
2018-08-28T19:39:13.112Z,99.90
2018-08-28T19:41:41.823Z,99.90
2018-08-28T19:44:10.480Z,99.90
2018-08-28T19:46:39.165Z,99.90
2018-08-28T19:49:12.188Z,99.90
2018-08-28T19:51:42.640Z,99.90
2018-08-28T19:54:15.014Z,99.90
2018-08-28T19:56:44.878Z,99.90
2018-08-28T19:59:13.506Z,99.90
2018-08-28T20:01:42.154Z,99.90
2018-08-28T20:04:10.822Z,99.90
2018-08-28T20:06:39.502Z,99.90
2018-08-28T20:09:08.185Z,99.90
2018-08-28T20:11:36.972Z,99.90
2018-08-28T20:14:05.782Z,99.90
2018-08-28T20:16:36.967Z,99.90
2018-08-28T20:19:06.068Z,99.90
2018-08-28T20:21:34.849Z,99.90
2018-08-28T20:24:03.988Z,99.90
2018-08-28T20:26:32.878Z,99.90
2018-08-28T20:29:01.632Z,99.90
2018-08-28T20:31:30.445Z,99.90
2018-08-28T20:33:59.169Z,99.90
2018-08-28T20:36:27.785Z,99.90
2018-08-28T20:38:56.483Z,99.90
2018-08-28T20:41:25.172Z,99.90
2018-08-28T20:43:54.062Z,99.90
2018-08-28T20:46:22.699Z,99.90
2018-08-28T20:48:51.309Z,99.90
2018-08-28T20:51:20.421Z,99.90
2018-08-28T20:53:49.206Z,99.90
2018-08-28T20:56:17.847Z,99.90
2018-08-28T20:58:46.547Z,99.90
2018-08-28T21:01:15.250Z,99.90
2018-08-28T21:03:43.864Z,99.90
2018-08-28T21:06:14.102Z,99.90
2018-08-28T21:08:44.537Z,99.90
2018-08-28T21:11:13.594Z,99.90
2018-08-28T21:13:42.708Z,99.90
2018-08-28T21:16:11.427Z,99.90
2018-08-28T21:18:40.016Z,99.90
2018-08-28T21:21:08.639Z,99.90
2018-08-28T21:23:37.295Z,99.90
2018-08-28T21:26:06.249Z,99.90
2018-08-28T21:28:36.337Z,99.90
2018-08-28T21:31:05.319Z,99.90
2018-08-28T21:33:34.204Z,99.90
2018-08-28T21:36:04.169Z,99.90
2018-08-28T21:38:32.910Z,99.90
2018-08-28T21:41:01.732Z,99.90
2018-08-28T21:43:30.540Z,99.90
2018-08-28T21:45:59.330Z,99.90
2018-08-28T21:48:29.961Z,99.90
2018-08-28T21:50:58.929Z,99.90
2018-08-28T21:53:27.675Z,99.90
2018-08-28T21:55:56.687Z,99.90
2018-08-28T21:58:25.341Z,99.90
2018-08-28T22:00:59.273Z,99.90
2018-08-28T22:03:28.153Z,99.90
2018-08-28T22:05:57.756Z,99.90
2018-08-28T22:08:27.629Z,99.90
2018-08-28T22:10:56.316Z,99.90
2018-08-28T22:13:25.050Z,99.90
2018-08-28T22:15:53.778Z,99.90
2018-08-28T22:18:22.566Z,99.90
2018-08-28T22:20:55.305Z,99.90
2018-08-28T22:23:24.059Z,99.90
2018-08-28T22:25:52.810Z,99.90
2018-08-28T22:28:21.457Z,99.90
2018-08-28T22:30:50.142Z,99.90
2018-08-28T22:33:18.825Z,99.90
2018-08-28T22:35:47.470Z,99.90
2018-08-28T22:38:16.180Z,99.90
2018-08-28T22:40:44.821Z,99.90
2018-08-28T22:43:17.749Z,99.90
2018-08-28T22:45:46.326Z,99.90
2018-08-28T22:48:14.934Z,99.90
2018-08-28T22:50:43.701Z,99.90
2018-08-28T22:53:12.330Z,99.90
2018-08-28T22:55:41.094Z,99.90
2018-08-28T22:58:09.880Z,99.90
2018-08-28T23:00:38.509Z,99.90
2018-08-28T23:03:07.182Z,99.90
2018-08-28T23:05:36.013Z,99.90
2018-08-28T23:08:04.697Z,99.90
2018-08-28T23:10:33.350Z,99.90
2018-08-28T23:13:01.992Z,99.90
2018-08-28T23:15:30.578Z,99.90
2018-08-28T23:17:59.261Z,99.90
2018-08-28T23:20:27.949Z,99.90
2018-08-28T23:22:56.655Z,99.90
2018-08-28T23:25:25.230Z,99.90
2018-08-28T23:27:53.903Z,99.90
2018-08-28T23:30:22.710Z,99.90
2018-08-28T23:32:51.397Z,99.90
2018-08-28T23:35:20.022Z,99.90
2018-08-28T23:37:48.708Z,99.90
2018-08-28T23:40:17.337Z,99.90
2018-08-28T23:42:46.427Z,99.90
2018-08-28T23:45:15.351Z,99.90
2018-08-28T23:47:44.110Z,99.90
2018-08-28T23:50:12.802Z,99.90
2018-08-28T23:52:41.485Z,99.90
2018-08-28T23:55:10.163Z,99.90
2018-08-28T23:57:39.033Z,99.90
